sensor_id;sensor_type;location;lat;lon;timestamp;P1;durP1;ratioP1;P2;durP2;ratioP2
20080;SDS011;10200;49.232;9.222;2022-07-12T00:01:30;14.40;;;2.25;;
20080;SDS011;10200;49.232;9.222;2022-07-12T00:03:56;0.88;;;0.88;;
20080;SDS011;10200;49.232;9.222;2022-07-12T00:06:22;1.48;;;1.38;;
20080;SDS011;10200;49.232;9.222;2022-07-12T00:08:47;0.95;;;0.88;;
20080;SDS011;10200;49.232;9.222;2022-07-12T00:11:13;1.20;;;1.10;;
20080;SDS011;10200;49.232;9.222;2022-07-12T00:13:38;0.90;;;0.90;;
20080;SDS011;10200;49.232;9.222;2022-07-12T00:16:04;1.13;;;1.00;;
20080;SDS011;10200;49.232;9.222;2022-07-12T00:18:30;5.00;;;1.10;;
20080;SDS011;10200;49.232;9.222;2022-07-12T00:20:56;1.00;;;0.95;;
20080;SDS011;10200;49.232;9.222;2022-07-12T00:23:21;0.80;;;0.80;;
20080;SDS011;10200;49.232;9.222;2022-07-12T00:25:47;0.88;;;0.88;;
20080;SDS011;10200;49.232;9.222;2022-07-12T00:28:12;4.68;;;1.42;;
20080;SDS011;10200;49.232;9.222;2022-07-12T00:30:38;1.13;;;1.00;;
20080;SDS011;10200;49.232;9.222;2022-07-12T00:33:04;1.10;;;1.00;;
20080;SDS011;10200;49.232;9.222;2022-07-12T00:35:29;0.77;;;0.77;;
20080;SDS011;10200;49.232;9.222;2022-07-12T00:37:55;1.27;;;0.93;;
20080;SDS011;10200;49.232;9.222;2022-07-12T00:40:21;3.88;;;1.00;;
20080;SDS011;10200;49.232;9.222;2022-07-12T00:42:46;1.20;;;1.08;;
20080;SDS011;10200;49.232;9.222;2022-07-12T00:45:12;1.08;;;0.90;;
20080;SDS011;10200;49.232;9.222;2022-07-12T00:47:42;1.00;;;1.00;;
20080;SDS011;10200;49.232;9.222;2022-07-12T00:50:14;1.02;;;0.90;;
20080;SDS011;10200;49.232;9.222;2022-07-12T00:52:46;1.08;;;0.98;;
20080;SDS011;10200;49.232;9.222;2022-07-12T00:55:14;1.10;;;1.05;;
20080;SDS011;10200;49.232;9.222;2022-07-12T00:57:41;1.02;;;0.95;;
20080;SDS011;10200;49.232;9.222;2022-07-12T01:00:08;0.90;;;0.90;;
20080;SDS011;10200;49.232;9.222;2022-07-12T01:02:37;1.20;;;1.10;;
20080;SDS011;10200;49.232;9.222;2022-07-12T01:05:04;1.45;;;0.70;;
20080;SDS011;10200;49.232;9.222;2022-07-12T01:07:30;0.90;;;0.82;;
20080;SDS011;10200;49.232;9.222;2022-07-12T01:09:57;5.03;;;1.50;;
20080;SDS011;10200;49.232;9.222;2022-07-12T01:12:24;0.80;;;0.80;;
20080;SDS011;10200;49.232;9.222;2022-07-12T01:14:50;1.98;;;1.00;;
20080;SDS011;10200;49.232;9.222;2022-07-12T01:17:20;7.05;;;1.52;;
20080;SDS011;10200;49.232;9.222;2022-07-12T01:19:47;4.38;;;1.15;;
20080;SDS011;10200;49.232;9.222;2022-07-12T01:22:14;45.80;;;2.00;;
20080;SDS011;10200;49.232;9.222;2022-07-12T01:24:42;1.00;;;1.00;;
20080;SDS011;10200;49.232;9.222;2022-07-12T01:27:08;0.93;;;0.82;;
20080;SDS011;10200;49.232;9.222;2022-07-12T01:29:33;0.98;;;0.80;;
20080;SDS011;10200;49.232;9.222;2022-07-12T01:32:00;0.93;;;0.93;;
20080;SDS011;10200;49.232;9.222;2022-07-12T01:35:08;1.13;;;0.90;;
20080;SDS011;10200;49.232;9.222;2022-07-12T01:37:34;1.10;;;1.00;;
20080;SDS011;10200;49.232;9.222;2022-07-12T01:40:01;0.80;;;0.80;;
20080;SDS011;10200;49.232;9.222;2022-07-12T01:42:32;1.13;;;1.02;;
20080;SDS011;10200;49.232;9.222;2022-07-12T01:44:58;1.00;;;0.90;;
20080;SDS011;10200;49.232;9.222;2022-07-12T01:47:26;1.58;;;1.00;;
20080;SDS011;10200;49.232;9.222;2022-07-12T01:49:53;0.80;;;0.80;;
20080;SDS011;10200;49.232;9.222;2022-07-12T01:52:19;3.15;;;1.08;;
20080;SDS011;10200;49.232;9.222;2022-07-12T01:54:45;2.35;;;1.00;;
20080;SDS011;10200;49.232;9.222;2022-07-12T01:57:11;1.10;;;1.02;;
20080;SDS011;10200;49.232;9.222;2022-07-12T01:59:37;9.25;;;1.17;;
20080;SDS011;10200;49.232;9.222;2022-07-12T02:02:04;4.65;;;1.23;;
20080;SDS011;10200;49.232;9.222;2022-07-12T02:04:29;1.83;;;0.90;;
20080;SDS011;10200;49.232;9.222;2022-07-12T02:06:55;1.52;;;0.90;;
20080;SDS011;10200;49.232;9.222;2022-07-12T02:09:22;0.80;;;0.80;;
20080;SDS011;10200;49.232;9.222;2022-07-12T02:11:47;1.40;;;0.90;;
20080;SDS011;10200;49.232;9.222;2022-07-12T02:14:13;1.23;;;1.13;;
20080;SDS011;10200;49.232;9.222;2022-07-12T02:16:39;1.00;;;0.90;;
20080;SDS011;10200;49.232;9.222;2022-07-12T02:19:05;1.23;;;1.13;;
20080;SDS011;10200;49.232;9.222;2022-07-12T02:21:31;2.13;;;0.80;;
20080;SDS011;10200;49.232;9.222;2022-07-12T02:23:58;0.90;;;0.90;;
20080;SDS011;10200;49.232;9.222;2022-07-12T02:26:24;0.80;;;0.80;;
20080;SDS011;10200;49.232;9.222;2022-07-12T02:28:50;2.22;;;0.70;;
20080;SDS011;10200;49.232;9.222;2022-07-12T02:31:16;1.23;;;1.00;;
20080;SDS011;10200;49.232;9.222;2022-07-12T02:33:41;1.63;;;1.10;;
20080;SDS011;10200;49.232;9.222;2022-07-12T02:36:07;2.20;;;0.90;;
20080;SDS011;10200;49.232;9.222;2022-07-12T02:38:33;3.72;;;1.83;;
20080;SDS011;10200;49.232;9.222;2022-07-12T02:40:59;2.40;;;1.20;;
20080;SDS011;10200;49.232;9.222;2022-07-12T02:43:25;2.03;;;0.90;;
20080;SDS011;10200;49.232;9.222;2022-07-12T02:45:52;1.10;;;1.00;;
20080;SDS011;10200;49.232;9.222;2022-07-12T02:48:18;0.80;;;0.80;;
20080;SDS011;10200;49.232;9.222;2022-07-12T02:50:44;1.00;;;0.90;;
20080;SDS011;10200;49.232;9.222;2022-07-12T02:53:11;0.70;;;0.70;;
20080;SDS011;10200;49.232;9.222;2022-07-12T02:55:37;1.27;;;1.17;;
20080;SDS011;10200;49.232;9.222;2022-07-12T02:58:03;1.10;;;0.93;;
20080;SDS011;10200;49.232;9.222;2022-07-12T03:00:33;2.07;;;0.90;;
20080;SDS011;10200;49.232;9.222;2022-07-12T03:02:59;0.80;;;0.80;;
20080;SDS011;10200;49.232;9.222;2022-07-12T03:05:25;1.00;;;1.00;;
20080;SDS011;10200;49.232;9.222;2022-07-12T03:07:51;1.00;;;0.90;;
20080;SDS011;10200;49.232;9.222;2022-07-12T03:10:16;15.13;;;1.43;;
20080;SDS011;10200;49.232;9.222;2022-07-12T03:12:42;1.67;;;0.80;;
20080;SDS011;10200;49.232;9.222;2022-07-12T03:15:08;70.57;;;3.47;;
20080;SDS011;10200;49.232;9.222;2022-07-12T03:17:33;1.43;;;1.33;;
20080;SDS011;10200;49.232;9.222;2022-07-12T03:20:00;1.47;;;1.37;;
20080;SDS011;10200;49.232;9.222;2022-07-12T03:22:26;1.07;;;0.97;;
20080;SDS011;10200;49.232;9.222;2022-07-12T03:24:52;1.53;;;1.40;;
20080;SDS011;10200;49.232;9.222;2022-07-12T03:27:18;0.93;;;0.93;;
20080;SDS011;10200;49.232;9.222;2022-07-12T03:29:44;1.10;;;1.00;;
20080;SDS011;10200;49.232;9.222;2022-07-12T03:32:09;1.30;;;0.90;;
20080;SDS011;10200;49.232;9.222;2022-07-12T03:34:36;1.20;;;1.10;;
20080;SDS011;10200;49.232;9.222;2022-07-12T03:37:02;0.90;;;0.87;;
20080;SDS011;10200;49.232;9.222;2022-07-12T03:39:28;1.33;;;1.13;;
20080;SDS011;10200;49.232;9.222;2022-07-12T03:41:54;5.23;;;1.30;;
20080;SDS011;10200;49.232;9.222;2022-07-12T03:44:20;1.13;;;1.00;;
20080;SDS011;10200;49.232;9.222;2022-07-12T03:46:45;1.33;;;1.10;;
20080;SDS011;10200;49.232;9.222;2022-07-12T03:49:12;3.17;;;1.53;;
20080;SDS011;10200;49.232;9.222;2022-07-12T03:51:38;3.00;;;1.37;;
20080;SDS011;10200;49.232;9.222;2022-07-12T03:54:03;2.93;;;1.67;;
20080;SDS011;10200;49.232;9.222;2022-07-12T03:56:32;1.40;;;1.30;;
20080;SDS011;10200;49.232;9.222;2022-07-12T03:59:16;1.27;;;1.10;;
20080;SDS011;10200;49.232;9.222;2022-07-12T04:01:42;1.20;;;1.10;;
20080;SDS011;10200;49.232;9.222;2022-07-12T04:04:08;1.33;;;1.23;;
20080;SDS011;10200;49.232;9.222;2022-07-12T04:06:33;1.30;;;1.20;;
20080;SDS011;10200;49.232;9.222;2022-07-12T04:08:59;1.77;;;1.20;;
20080;SDS011;10200;49.232;9.222;2022-07-12T04:11:24;1.30;;;1.17;;
20080;SDS011;10200;49.232;9.222;2022-07-12T04:13:51;4.57;;;1.53;;
20080;SDS011;10200;49.232;9.222;2022-07-12T04:16:16;2.80;;;1.20;;
20080;SDS011;10200;49.232;9.222;2022-07-12T04:18:42;1.30;;;1.20;;
20080;SDS011;10200;49.232;9.222;2022-07-12T04:21:07;1.57;;;1.47;;
20080;SDS011;10200;49.232;9.222;2022-07-12T04:23:33;1.50;;;1.40;;
20080;SDS011;10200;49.232;9.222;2022-07-12T04:25:58;1.10;;;1.10;;
20080;SDS011;10200;49.232;9.222;2022-07-12T04:28:24;1.53;;;1.33;;
20080;SDS011;10200;49.232;9.222;2022-07-12T04:30:50;1.37;;;1.27;;
20080;SDS011;10200;49.232;9.222;2022-07-12T04:33:15;3.70;;;1.10;;
20080;SDS011;10200;49.232;9.222;2022-07-12T04:35:41;1.10;;;1.00;;
20080;SDS011;10200;49.232;9.222;2022-07-12T04:38:07;1.37;;;1.10;;
20080;SDS011;10200;49.232;9.222;2022-07-12T04:40:33;2.60;;;1.00;;
20080;SDS011;10200;49.232;9.222;2022-07-12T04:42:58;1.20;;;1.10;;
20080;SDS011;10200;49.232;9.222;2022-07-12T04:45:24;0.80;;;0.80;;
20080;SDS011;10200;49.232;9.222;2022-07-12T04:47:50;1.23;;;0.93;;
20080;SDS011;10200;49.232;9.222;2022-07-12T04:50:16;1.38;;;0.80;;
20080;SDS011;10200;49.232;9.222;2022-07-12T04:52:42;0.65;;;0.60;;
20080;SDS011;10200;49.232;9.222;2022-07-12T04:55:07;1.15;;;1.00;;
20080;SDS011;10200;49.232;9.222;2022-07-12T04:57:33;0.98;;;0.70;;
20080;SDS011;10200;49.232;9.222;2022-07-12T04:59:59;0.90;;;0.90;;
20080;SDS011;10200;49.232;9.222;2022-07-12T05:02:25;1.00;;;0.80;;
20080;SDS011;10200;49.232;9.222;2022-07-12T05:04:51;1.23;;;1.13;;
20080;SDS011;10200;49.232;9.222;2022-07-12T05:07:17;1.33;;;0.95;;
20080;SDS011;10200;49.232;9.222;2022-07-12T05:09:43;0.82;;;0.80;;
20080;SDS011;10200;49.232;9.222;2022-07-12T05:12:08;2.00;;;0.98;;
20080;SDS011;10200;49.232;9.222;2022-07-12T05:14:34;1.10;;;1.00;;
20080;SDS011;10200;49.232;9.222;2022-07-12T05:16:59;2.35;;;0.90;;
20080;SDS011;10200;49.232;9.222;2022-07-12T05:19:25;0.93;;;0.90;;
20080;SDS011;10200;49.232;9.222;2022-07-12T05:21:50;0.85;;;0.75;;
20080;SDS011;10200;49.232;9.222;2022-07-12T05:24:16;0.80;;;0.80;;
20080;SDS011;10200;49.232;9.222;2022-07-12T05:26:42;1.13;;;0.90;;
20080;SDS011;10200;49.232;9.222;2022-07-12T05:29:07;1.05;;;0.95;;
20080;SDS011;10200;49.232;9.222;2022-07-12T05:31:33;1.10;;;1.00;;
20080;SDS011;10200;49.232;9.222;2022-07-12T05:33:59;1.13;;;1.02;;
20080;SDS011;10200;49.232;9.222;2022-07-12T05:36:25;1.30;;;1.10;;
20080;SDS011;10200;49.232;9.222;2022-07-12T05:38:51;1.13;;;0.80;;
20080;SDS011;10200;49.232;9.222;2022-07-12T05:41:16;1.42;;;0.90;;
20080;SDS011;10200;49.232;9.222;2022-07-12T05:43:42;0.93;;;0.85;;
20080;SDS011;10200;49.232;9.222;2022-07-12T05:46:08;0.88;;;0.88;;
20080;SDS011;10200;49.232;9.222;2022-07-12T05:48:34;1.95;;;0.93;;
20080;SDS011;10200;49.232;9.222;2022-07-12T05:51:01;1.13;;;0.90;;
20080;SDS011;10200;49.232;9.222;2022-07-12T05:53:45;1.13;;;1.02;;
20080;SDS011;10200;49.232;9.222;2022-07-12T05:56:10;0.80;;;0.80;;
20080;SDS011;10200;49.232;9.222;2022-07-12T05:58:36;3.25;;;1.17;;
20080;SDS011;10200;49.232;9.222;2022-07-12T06:01:01;1.10;;;1.00;;
20080;SDS011;10200;49.232;9.222;2022-07-12T06:03:27;0.85;;;0.80;;
20080;SDS011;10200;49.232;9.222;2022-07-12T06:05:53;0.82;;;0.82;;
20080;SDS011;10200;49.232;9.222;2022-07-12T06:08:19;0.90;;;0.90;;
20080;SDS011;10200;49.232;9.222;2022-07-12T06:10:44;1.20;;;1.10;;
20080;SDS011;10200;49.232;9.222;2022-07-12T06:13:10;1.90;;;1.00;;
20080;SDS011;10200;49.232;9.222;2022-07-12T06:15:35;0.70;;;0.68;;
20080;SDS011;10200;49.232;9.222;2022-07-12T06:18:02;0.70;;;0.70;;
20080;SDS011;10200;49.232;9.222;2022-07-12T06:20:27;0.70;;;0.70;;
20080;SDS011;10200;49.232;9.222;2022-07-12T06:22:54;0.55;;;0.52;;
20080;SDS011;10200;49.232;9.222;2022-07-12T06:25:20;0.90;;;0.90;;
20080;SDS011;10200;49.232;9.222;2022-07-12T06:27:46;0.70;;;0.70;;
20080;SDS011;10200;49.232;9.222;2022-07-12T06:30:13;0.80;;;0.57;;
20080;SDS011;10200;49.232;9.222;2022-07-12T06:32:43;0.98;;;0.85;;
20080;SDS011;10200;49.232;9.222;2022-07-12T06:35:10;0.60;;;0.60;;
20080;SDS011;10200;49.232;9.222;2022-07-12T06:37:36;1.13;;;0.70;;
20080;SDS011;10200;49.232;9.222;2022-07-12T06:40:01;0.80;;;0.60;;
20080;SDS011;10200;49.232;9.222;2022-07-12T06:42:27;1.75;;;0.55;;
20080;SDS011;10200;49.232;9.222;2022-07-12T06:44:53;0.50;;;0.50;;
20080;SDS011;10200;49.232;9.222;2022-07-12T06:47:19;0.60;;;0.60;;
20080;SDS011;10200;49.232;9.222;2022-07-12T06:49:45;1.00;;;0.60;;
20080;SDS011;10200;49.232;9.222;2022-07-12T06:52:10;0.40;;;0.40;;
20080;SDS011;10200;49.232;9.222;2022-07-12T06:54:36;0.77;;;0.75;;
20080;SDS011;10200;49.232;9.222;2022-07-12T06:57:02;0.70;;;0.70;;
20080;SDS011;10200;49.232;9.222;2022-07-12T06:59:27;1.98;;;0.55;;
20080;SDS011;10200;49.232;9.222;2022-07-12T07:01:53;0.88;;;0.60;;
20080;SDS011;10200;49.232;9.222;2022-07-12T07:04:20;0.63;;;0.50;;
20080;SDS011;10200;49.232;9.222;2022-07-12T07:06:47;0.45;;;0.45;;
20080;SDS011;10200;49.232;9.222;2022-07-12T07:09:12;0.98;;;0.90;;
20080;SDS011;10200;49.232;9.222;2022-07-12T07:11:39;0.70;;;0.70;;
20080;SDS011;10200;49.232;9.222;2022-07-12T07:14:05;0.55;;;0.55;;
20080;SDS011;10200;49.232;9.222;2022-07-12T07:16:31;0.50;;;0.50;;
20080;SDS011;10200;49.232;9.222;2022-07-12T07:18:56;0.60;;;0.60;;
20080;SDS011;10200;49.232;9.222;2022-07-12T07:21:22;0.50;;;0.50;;
20080;SDS011;10200;49.232;9.222;2022-07-12T07:23:48;0.50;;;0.50;;
20080;SDS011;10200;49.232;9.222;2022-07-12T07:26:14;0.93;;;0.45;;
20080;SDS011;10200;49.232;9.222;2022-07-12T07:28:40;0.60;;;0.60;;
20080;SDS011;10200;49.232;9.222;2022-07-12T07:31:24;0.50;;;0.50;;
20080;SDS011;10200;49.232;9.222;2022-07-12T07:33:49;0.57;;;0.40;;
20080;SDS011;10200;49.232;9.222;2022-07-12T07:36:15;0.57;;;0.50;;
20080;SDS011;10200;49.232;9.222;2022-07-12T07:38:40;0.52;;;0.38;;
20080;SDS011;10200;49.232;9.222;2022-07-12T07:41:06;0.90;;;0.60;;
20080;SDS011;10200;49.232;9.222;2022-07-12T07:43:32;0.52;;;0.43;;
20080;SDS011;10200;49.232;9.222;2022-07-12T07:45:58;1.02;;;0.47;;
20080;SDS011;10200;49.232;9.222;2022-07-12T07:48:24;0.35;;;0.35;;
20080;SDS011;10200;49.232;9.222;2022-07-12T07:50:49;0.40;;;0.30;;
20080;SDS011;10200;49.232;9.222;2022-07-12T07:53:15;0.57;;;0.40;;
20080;SDS011;10200;49.232;9.222;2022-07-12T07:55:41;0.38;;;0.38;;
20080;SDS011;10200;49.232;9.222;2022-07-12T07:58:06;0.52;;;0.38;;
20080;SDS011;10200;49.232;9.222;2022-07-12T08:00:32;0.30;;;0.30;;
20080;SDS011;10200;49.232;9.222;2022-07-12T08:02:57;0.40;;;0.40;;
20080;SDS011;10200;49.232;9.222;2022-07-12T08:05:23;0.55;;;0.40;;
20080;SDS011;10200;49.232;9.222;2022-07-12T08:07:49;0.43;;;0.43;;
20080;SDS011;10200;49.232;9.222;2022-07-12T08:10:15;0.30;;;0.30;;
20080;SDS011;10200;49.232;9.222;2022-07-12T08:12:41;0.20;;;0.20;;
20080;SDS011;10200;49.232;9.222;2022-07-12T08:15:06;0.40;;;0.30;;
20080;SDS011;10200;49.232;9.222;2022-07-12T08:17:32;0.52;;;0.40;;
20080;SDS011;10200;49.232;9.222;2022-07-12T08:19:58;0.75;;;0.40;;
20080;SDS011;10200;49.232;9.222;2022-07-12T08:22:24;0.63;;;0.40;;
20080;SDS011;10200;49.232;9.222;2022-07-12T08:24:49;0.50;;;0.40;;
20080;SDS011;10200;49.232;9.222;2022-07-12T08:27:15;0.52;;;0.40;;
20080;SDS011;10200;49.232;9.222;2022-07-12T08:29:41;0.40;;;0.40;;
20080;SDS011;10200;49.232;9.222;2022-07-12T08:32:06;0.57;;;0.50;;
20080;SDS011;10200;49.232;9.222;2022-07-12T08:34:35;1.70;;;0.68;;
20080;SDS011;10200;49.232;9.222;2022-07-12T08:37:01;0.35;;;0.35;;
20080;SDS011;10200;49.232;9.222;2022-07-12T08:39:26;0.88;;;0.57;;
20080;SDS011;10200;49.232;9.222;2022-07-12T08:41:52;0.30;;;0.30;;
20080;SDS011;10200;49.232;9.222;2022-07-12T08:44:18;0.30;;;0.30;;
20080;SDS011;10200;49.232;9.222;2022-07-12T08:46:43;3.38;;;0.60;;
20080;SDS011;10200;49.232;9.222;2022-07-12T08:49:11;1.85;;;0.50;;
20080;SDS011;10200;49.232;9.222;2022-07-12T08:51:37;0.38;;;0.38;;
20080;SDS011;10200;49.232;9.222;2022-07-12T08:54:07;0.30;;;0.30;;
20080;SDS011;10200;49.232;9.222;2022-07-12T08:56:38;0.30;;;0.30;;
20080;SDS011;10200;49.232;9.222;2022-07-12T08:59:15;0.40;;;0.32;;
20080;SDS011;10200;49.232;9.222;2022-07-12T09:06:47;1.55;;;0.40;;
20080;SDS011;10200;49.232;9.222;2022-07-12T09:09:26;0.20;;;0.20;;
20080;SDS011;10200;49.232;9.222;2022-07-12T09:11:53;0.30;;;0.30;;
20080;SDS011;10200;49.232;9.222;2022-07-12T09:14:19;0.30;;;0.30;;
20080;SDS011;10200;49.232;9.222;2022-07-12T09:16:57;0.32;;;0.28;;
20080;SDS011;10200;49.232;9.222;2022-07-12T09:19:23;0.30;;;0.30;;
20080;SDS011;10200;49.232;9.222;2022-07-12T09:21:49;0.35;;;0.35;;
20080;SDS011;10200;49.232;9.222;2022-07-12T09:24:19;0.30;;;0.20;;
20080;SDS011;10200;49.232;9.222;2022-07-12T09:26:48;0.30;;;0.30;;
20080;SDS011;10200;49.232;9.222;2022-07-12T09:29:17;0.30;;;0.30;;
20080;SDS011;10200;49.232;9.222;2022-07-12T09:31:44;0.45;;;0.35;;
20080;SDS011;10200;49.232;9.222;2022-07-12T09:34:32;0.30;;;0.30;;
20080;SDS011;10200;49.232;9.222;2022-07-12T09:37:17;0.50;;;0.50;;
20080;SDS011;10200;49.232;9.222;2022-07-12T09:39:43;1.17;;;0.20;;
20080;SDS011;10200;49.232;9.222;2022-07-12T09:42:09;0.50;;;0.50;;
20080;SDS011;10200;49.232;9.222;2022-07-12T09:44:36;0.30;;;0.30;;
20080;SDS011;10200;49.232;9.222;2022-07-12T09:47:02;0.35;;;0.35;;
20080;SDS011;10200;49.232;9.222;2022-07-12T09:49:28;0.30;;;0.30;;
20080;SDS011;10200;49.232;9.222;2022-07-12T09:51:55;0.38;;;0.38;;
20080;SDS011;10200;49.232;9.222;2022-07-12T09:54:25;0.30;;;0.30;;
20080;SDS011;10200;49.232;9.222;2022-07-12T09:56:53;0.80;;;0.25;;
20080;SDS011;10200;49.232;9.222;2022-07-12T09:59:22;0.20;;;0.20;;
20080;SDS011;10200;49.232;9.222;2022-07-12T10:01:52;0.52;;;0.20;;
20080;SDS011;10200;49.232;9.222;2022-07-12T10:04:21;0.40;;;0.40;;
20080;SDS011;10200;49.232;9.222;2022-07-12T10:06:47;0.28;;;0.28;;
20080;SDS011;10200;49.232;9.222;2022-07-12T10:09:16;1.27;;;0.30;;
20080;SDS011;10200;49.232;9.222;2022-07-12T10:11:42;0.30;;;0.30;;
20080;SDS011;10200;49.232;9.222;2022-07-12T10:14:11;0.30;;;0.30;;
20080;SDS011;10200;49.232;9.222;2022-07-12T10:16:37;0.30;;;0.30;;
20080;SDS011;10200;49.232;9.222;2022-07-12T10:21:50;0.30;;;0.30;;
20080;SDS011;10200;49.232;9.222;2022-07-12T10:29:41;0.45;;;0.30;;
20080;SDS011;10200;49.232;9.222;2022-07-12T10:32:27;0.40;;;0.40;;
20080;SDS011;10200;49.232;9.222;2022-07-12T10:34:59;0.47;;;0.38;;
20080;SDS011;10200;49.232;9.222;2022-07-12T10:37:25;0.40;;;0.40;;
20080;SDS011;10200;49.232;9.222;2022-07-12T10:42:35;0.50;;;0.30;;
20080;SDS011;10200;49.232;9.222;2022-07-12T10:45:14;0.28;;;0.28;;
20080;SDS011;10200;49.232;9.222;2022-07-12T10:47:52;0.22;;;0.22;;
20080;SDS011;10200;49.232;9.222;2022-07-12T10:58:38;0.70;;;0.30;;
20080;SDS011;10200;49.232;9.222;2022-07-12T11:01:09;0.22;;;0.22;;
20080;SDS011;10200;49.232;9.222;2022-07-12T11:06:08;0.20;;;0.20;;
20080;SDS011;10200;49.232;9.222;2022-07-12T11:11:25;0.30;;;0.30;;
20080;SDS011;10200;49.232;9.222;2022-07-12T11:13:55;2.75;;;0.57;;
20080;SDS011;10200;49.232;9.222;2022-07-12T11:16:23;0.20;;;0.20;;
20080;SDS011;10200;49.232;9.222;2022-07-12T11:18:49;0.30;;;0.30;;
20080;SDS011;10200;49.232;9.222;2022-07-12T11:21:15;0.30;;;0.30;;
20080;SDS011;10200;49.232;9.222;2022-07-12T11:23:42;0.20;;;0.20;;
20080;SDS011;10200;49.232;9.222;2022-07-12T11:26:08;0.32;;;0.32;;
20080;SDS011;10200;49.232;9.222;2022-07-12T11:28:35;0.40;;;0.40;;
20080;SDS011;10200;49.232;9.222;2022-07-12T11:31:03;0.32;;;0.32;;
20080;SDS011;10200;49.232;9.222;2022-07-12T11:33:40;0.85;;;0.30;;
20080;SDS011;10200;49.232;9.222;2022-07-12T11:36:08;0.43;;;0.40;;
20080;SDS011;10200;49.232;9.222;2022-07-12T11:38:35;0.85;;;0.50;;
20080;SDS011;10200;49.232;9.222;2022-07-12T11:41:03;1.45;;;0.20;;
20080;SDS011;10200;49.232;9.222;2022-07-12T11:43:30;0.63;;;0.40;;
20080;SDS011;10200;49.232;9.222;2022-07-12T11:45:57;0.43;;;0.43;;
20080;SDS011;10200;49.232;9.222;2022-07-12T11:48:23;1.55;;;0.32;;
20080;SDS011;10200;49.232;9.222;2022-07-12T11:50:52;0.22;;;0.22;;
20080;SDS011;10200;49.232;9.222;2022-07-12T11:55:52;0.30;;;0.30;;
20080;SDS011;10200;49.232;9.222;2022-07-12T11:58:20;0.20;;;0.20;;
20080;SDS011;10200;49.232;9.222;2022-07-12T12:00:47;0.55;;;0.40;;
20080;SDS011;10200;49.232;9.222;2022-07-12T12:03:13;0.30;;;0.30;;
20080;SDS011;10200;49.232;9.222;2022-07-12T12:05:41;3.65;;;0.45;;
20080;SDS011;10200;49.232;9.222;2022-07-12T12:08:07;1.02;;;0.50;;
20080;SDS011;10200;49.232;9.222;2022-07-12T12:10:35;0.60;;;0.40;;
20080;SDS011;10200;49.232;9.222;2022-07-12T12:13:01;0.32;;;0.32;;
20080;SDS011;10200;49.232;9.222;2022-07-12T12:15:31;0.40;;;0.40;;
20080;SDS011;10200;49.232;9.222;2022-07-12T12:17:59;0.32;;;0.32;;
20080;SDS011;10200;49.232;9.222;2022-07-12T12:20:30;1.55;;;0.40;;
20080;SDS011;10200;49.232;9.222;2022-07-12T12:23:00;0.50;;;0.30;;
20080;SDS011;10200;49.232;9.222;2022-07-12T12:25:27;0.38;;;0.38;;
20080;SDS011;10200;49.232;9.222;2022-07-12T12:30:20;1.65;;;0.40;;
20080;SDS011;10200;49.232;9.222;2022-07-12T12:33:07;0.40;;;0.40;;
20080;SDS011;10200;49.232;9.222;2022-07-12T12:35:38;0.45;;;0.45;;
20080;SDS011;10200;49.232;9.222;2022-07-12T12:38:11;0.30;;;0.30;;
20080;SDS011;10200;49.232;9.222;2022-07-12T12:40:38;1.15;;;0.50;;
20080;SDS011;10200;49.232;9.222;2022-07-12T12:43:08;0.38;;;0.38;;
20080;SDS011;10200;49.232;9.222;2022-07-12T12:45:51;0.40;;;0.35;;
20080;SDS011;10200;49.232;9.222;2022-07-12T12:48:20;0.57;;;0.40;;
20080;SDS011;10200;49.232;9.222;2022-07-12T12:50:51;0.30;;;0.30;;
20080;SDS011;10200;49.232;9.222;2022-07-12T12:53:18;0.40;;;0.40;;
20080;SDS011;10200;49.232;9.222;2022-07-12T12:55:46;0.95;;;0.30;;
20080;SDS011;10200;49.232;9.222;2022-07-12T12:58:13;0.35;;;0.35;;
20080;SDS011;10200;49.232;9.222;2022-07-12T13:00:41;0.35;;;0.30;;
20080;SDS011;10200;49.232;9.222;2022-07-12T13:03:08;0.30;;;0.30;;
20080;SDS011;10200;49.232;9.222;2022-07-12T13:05:35;0.52;;;0.40;;
20080;SDS011;10200;49.232;9.222;2022-07-12T13:08:01;0.40;;;0.40;;
20080;SDS011;10200;49.232;9.222;2022-07-12T13:10:28;0.30;;;0.30;;
20080;SDS011;10200;49.232;9.222;2022-07-12T13:12:54;0.30;;;0.30;;
20080;SDS011;10200;49.232;9.222;2022-07-12T13:15:20;0.55;;;0.50;;
20080;SDS011;10200;49.232;9.222;2022-07-12T13:17:46;0.38;;;0.38;;
20080;SDS011;10200;49.232;9.222;2022-07-12T13:20:13;0.30;;;0.30;;
20080;SDS011;10200;49.232;9.222;2022-07-12T13:22:39;0.32;;;0.32;;
20080;SDS011;10200;49.232;9.222;2022-07-12T13:25:06;0.47;;;0.40;;
20080;SDS011;10200;49.232;9.222;2022-07-12T13:27:32;0.30;;;0.30;;
20080;SDS011;10200;49.232;9.222;2022-07-12T13:29:58;0.30;;;0.30;;
20080;SDS011;10200;49.232;9.222;2022-07-12T13:32:24;0.40;;;0.40;;
20080;SDS011;10200;49.232;9.222;2022-07-12T13:34:50;2.50;;;0.60;;
20080;SDS011;10200;49.232;9.222;2022-07-12T13:37:16;0.30;;;0.30;;
20080;SDS011;10200;49.232;9.222;2022-07-12T13:39:42;0.60;;;0.40;;
20080;SDS011;10200;49.232;9.222;2022-07-12T13:42:26;0.38;;;0.38;;
20080;SDS011;10200;49.232;9.222;2022-07-12T13:44:51;0.60;;;0.32;;
20080;SDS011;10200;49.232;9.222;2022-07-12T13:47:21;0.70;;;0.40;;
20080;SDS011;10200;49.232;9.222;2022-07-12T13:49:49;0.30;;;0.30;;
20080;SDS011;10200;49.232;9.222;2022-07-12T13:52:14;0.30;;;0.30;;
20080;SDS011;10200;49.232;9.222;2022-07-12T13:54:40;0.43;;;0.43;;
20080;SDS011;10200;49.232;9.222;2022-07-12T13:57:08;0.30;;;0.30;;
20080;SDS011;10200;49.232;9.222;2022-07-12T13:59:35;0.35;;;0.35;;
20080;SDS011;10200;49.232;9.222;2022-07-12T14:02:04;0.32;;;0.32;;
20080;SDS011;10200;49.232;9.222;2022-07-12T14:04:30;0.47;;;0.40;;
20080;SDS011;10200;49.232;9.222;2022-07-12T14:06:56;1.10;;;0.50;;
20080;SDS011;10200;49.232;9.222;2022-07-12T14:09:22;0.47;;;0.38;;
20080;SDS011;10200;49.232;9.222;2022-07-12T14:11:48;0.73;;;0.40;;
20080;SDS011;10200;49.232;9.222;2022-07-12T14:14:14;0.40;;;0.40;;
20080;SDS011;10200;49.232;9.222;2022-07-12T14:16:39;0.57;;;0.40;;
20080;SDS011;10200;49.232;9.222;2022-07-12T14:19:05;1.55;;;0.40;;
20080;SDS011;10200;49.232;9.222;2022-07-12T14:21:31;1.30;;;0.60;;
20080;SDS011;10200;49.232;9.222;2022-07-12T14:23:56;0.40;;;0.40;;
20080;SDS011;10200;49.232;9.222;2022-07-12T14:26:28;6.22;;;0.52;;
20080;SDS011;10200;49.232;9.222;2022-07-12T14:28:55;0.30;;;0.30;;
20080;SDS011;10200;49.232;9.222;2022-07-12T14:31:21;1.65;;;0.60;;
20080;SDS011;10200;49.232;9.222;2022-07-12T14:33:49;0.40;;;0.40;;
20080;SDS011;10200;49.232;9.222;2022-07-12T14:36:16;0.50;;;0.50;;
20080;SDS011;10200;49.232;9.222;2022-07-12T14:38:41;1.58;;;0.50;;
20080;SDS011;10200;49.232;9.222;2022-07-12T14:41:07;0.40;;;0.40;;
20080;SDS011;10200;49.232;9.222;2022-07-12T14:43:35;0.40;;;0.40;;
20080;SDS011;10200;49.232;9.222;2022-07-12T14:46:01;0.40;;;0.40;;
20080;SDS011;10200;49.232;9.222;2022-07-12T14:48:26;0.38;;;0.38;;
20080;SDS011;10200;49.232;9.222;2022-07-12T14:50:52;0.30;;;0.30;;
20080;SDS011;10200;49.232;9.222;2022-07-12T14:53:18;0.55;;;0.55;;
20080;SDS011;10200;49.232;9.222;2022-07-12T14:55:43;0.50;;;0.50;;
20080;SDS011;10200;49.232;9.222;2022-07-12T14:58:09;1.90;;;0.50;;
20080;SDS011;10200;49.232;9.222;2022-07-12T15:00:35;0.40;;;0.40;;
20080;SDS011;10200;49.232;9.222;2022-07-12T15:03:02;0.35;;;0.35;;
20080;SDS011;10200;49.232;9.222;2022-07-12T15:05:28;0.45;;;0.38;;
20080;SDS011;10200;49.232;9.222;2022-07-12T15:07:54;0.32;;;0.32;;
20080;SDS011;10200;49.232;9.222;2022-07-12T15:10:20;0.40;;;0.40;;
20080;SDS011;10200;49.232;9.222;2022-07-12T15:12:46;0.55;;;0.50;;
20080;SDS011;10200;49.232;9.222;2022-07-12T15:15:12;0.28;;;0.28;;
20080;SDS011;10200;49.232;9.222;2022-07-12T15:17:39;0.75;;;0.50;;
20080;SDS011;10200;49.232;9.222;2022-07-12T15:20:04;0.40;;;0.40;;
20080;SDS011;10200;49.232;9.222;2022-07-12T15:22:31;0.35;;;0.35;;